Time;durP1;ratioP1;P1;durP2;ratioP2;P2;SDS_P1;SDS_P2;PMS_P1;PMS_P2;Temp;Humidity;BMP_temperature;BMP_pressure;BME280_temperature;BME280_humidity;BME280_pressure;Samples;Min_cycle;Max_cycle;Signal;HPM_P1;HPM_P2
2023/03/18 05:31:29;;;;;;;17.95;12.30;;;14.50;68.10;;;;;;5555307;24;20058;-71
2023/03/18 05:33:55;;;;;;;16.60;12.43;;;14.70;67.30;;;;;;4819871;29;20050;-73
2023/03/18 05:36:22;;;;;;;17.17;13.05;;;14.80;66.80;;;;;;4808276;29;20094;-75
2023/03/18 05:38:47;;;;;;;15.70;11.52;;;14.90;66.60;;;;;;4808879;29;20093;-76
2023/03/18 05:41:13;;;;;;;17.10;12.02;;;15.00;66.80;;;;;;4808170;29;20090;-74
2023/03/18 05:43:39;;;;;;;19.75;10.85;;;15.10;66.80;;;;;;4821574;29;20486;-77
2023/03/18 05:46:04;;;;;;;27.45;10.75;;;15.20;66.90;;;;;;4817935;29;20048;-71
2023/03/18 05:48:30;;;;;;;19.30;11.15;;;15.30;67.00;;;;;;4807702;29;20079;-73
2023/03/18 05:50:57;;;;;;;19.40;10.20;;;15.30;67.10;;;;;;4826483;29;20047;-74
2023/03/18 05:53:23;;;;;;;21.80;10.57;;;15.30;67.10;;;;;;4822117;29;20118;-72
2023/03/18 05:55:49;;;;;;;32.58;11.18;;;15.40;67.30;;;;;;4801996;29;20130;-74
2023/03/18 05:58:15;;;;;;;23.55;9.90;;;15.50;67.50;;;;;;4826215;29;20100;-71
2023/03/18 06:00:42;;;;;;;23.88;9.25;;;15.60;67.80;;;;;;4825682;29;20057;-78
2023/03/18 06:03:08;;;;;;;28.85;10.65;;;15.70;68.10;;;;;;4817694;29;20070;-73
2023/03/18 06:05:34;;;;;;;35.92;10.48;;;15.80;68.10;;;;;;4834527;29;20049;-75
2023/03/18 06:08:00;;;;;;;28.30;9.20;;;15.90;68.10;;;;;;4833043;29;20045;-76
2023/03/18 06:10:26;;;;;;;35.05;10.05;;;16.00;68.20;;;;;;4835575;29;20050;-75
2023/03/18 06:12:54;;;;;;;29.38;9.43;;;16.00;68.20;;;;;;4836042;29;20057;-76
2023/03/18 06:15:20;;;;;;;35.75;9.25;;;16.00;68.30;;;;;;4825504;29;20047;-76
2023/03/18 06:17:46;;;;;;;31.73;8.70;;;16.00;68.30;;;;;;4826308;29;20490;-77
2023/03/18 06:20:14;;;;;;;32.80;9.23;;;16.10;68.40;;;;;;4826014;29;20050;-76
2023/03/18 06:22:40;;;;;;;35.50;8.77;;;16.10;68.50;;;;;;4810186;29;20050;-73
2023/03/18 06:25:07;;;;;;;23.33;8.27;;;16.10;68.70;;;;;;4828496;29;20503;-75
2023/03/18 06:27:34;;;;;;;28.17;8.45;;;16.20;68.80;;;;;;4829831;29;20050;-77
2023/03/18 06:30:03;;;;;;;28.35;8.43;;;16.10;68.90;;;;;;4826703;29;20438;-76
2023/03/18 06:32:29;;;;;;;31.23;8.55;;;16.10;68.80;;;;;;4842718;29;20062;-72
2023/03/18 06:34:55;;;;;;;35.97;9.60;;;16.10;69.10;;;;;;4807620;29;20079;-78
2023/03/18 06:37:21;;;;;;;37.60;9.43;;;16.10;68.90;;;;;;4795909;29;20455;-75
2023/03/18 06:39:46;;;;;;;33.40;9.00;;;16.00;69.20;;;;;;4811484;29;20103;-77
2023/03/18 06:42:12;;;;;;;29.23;8.90;;;16.00;69.50;;;;;;4782607;29;20051;-76
2023/03/18 06:44:41;;;;;;;27.70;13.00;;;15.90;69.60;;;;;;4813435;29;20058;-76
2023/03/18 06:47:07;;;;;;;29.00;12.02;;;15.90;68.10;;;;;;4828772;29;20058;-76
2023/03/18 06:49:33;;;;;;;37.85;8.80;;;15.90;69.40;;;;;;4813485;29;20086;-75
2023/03/18 06:51:59;;;;;;;36.15;9.98;;;15.90;69.80;;;;;;4828502;29;20085;-75
2023/03/18 06:54:25;;;;;;;33.53;8.95;;;15.90;70.20;;;;;;4829987;29;20358;-74
2023/03/18 06:56:51;;;;;;;34.92;9.18;;;15.90;70.40;;;;;;4847522;29;20066;-75
2023/03/18 06:59:18;;;;;;;35.33;9.77;;;15.90;70.50;;;;;;4831034;29;20050;-78
2023/03/18 07:01:44;;;;;;;49.90;11.77;;;15.90;70.40;;;;;;4830768;29;20117;-78
2023/03/18 07:04:16;;;;;;;35.33;10.13;;;15.90;70.40;;;;;;4829510;29;20129;-73
2023/03/18 07:06:42;;;;;;;43.58;10.95;;;16.00;70.80;;;;;;4829273;29;20125;-75
2023/03/18 07:09:14;;;;;;;37.33;10.48;;;16.00;70.50;;;;;;4828480;29;20141;-76
2023/03/18 07:11:39;;;;;;;28.60;9.70;;;16.00;70.60;;;;;;4828121;29;20087;-77
2023/03/18 07:14:06;;;;;;;42.45;10.48;;;16.00;70.70;;;;;;4826714;29;20058;-78
2023/03/18 07:16:32;;;;;;;35.15;9.25;;;16.00;70.90;;;;;;4810349;29;20550;-76
2023/03/18 07:18:59;;;;;;;41.13;10.73;;;16.00;71.20;;;;;;4822409;29;20271;-78
2023/03/18 07:21:26;;;;;;;38.45;10.02;;;16.00;71.20;;;;;;4815067;29;20047;-76
2023/03/18 07:23:54;;;;;;;28.65;9.95;;;15.90;71.20;;;;;;4780061;29;20058;-80
2023/03/18 07:26:20;;;;;;;36.40;10.88;;;15.90;71.30;;;;;;4810762;29;20058;-75
2023/03/18 07:28:46;;;;;;;38.22;10.30;;;15.90;71.30;;;;;;4810118;29;20486;-77
2023/03/18 07:31:12;;;;;;;47.20;11.30;;;15.90;71.50;;;;;;4811059;29;20465;-74
2023/03/18 07:33:39;;;;;;;42.13;10.20;;;15.90;71.50;;;;;;4809762;29;20507;-75
2023/03/18 07:36:06;;;;;;;51.55;11.93;;;15.80;71.40;;;;;;4810417;29;20096;-77
2023/03/18 07:38:32;;;;;;;44.97;12.10;;;15.80;71.50;;;;;;4810598;29;20062;-79
2023/03/18 07:41:00;;;;;;;35.55;10.50;;;15.80;71.40;;;;;;4788807;29;20061;-83
2023/03/18 07:43:26;;;;;;;42.78;12.55;;;15.80;71.10;;;;;;4796171;29;20441;-83
2023/03/18 07:45:51;;;;;;;40.60;13.65;;;15.80;70.90;;;;;;4828099;29;20074;-71
2023/03/18 07:48:18;;;;;;;24.35;12.15;;;15.80;69.70;;;;;;4827940;29;20046;-80
2023/03/18 07:50:44;;;;;;;42.10;13.02;;;15.40;67.50;;;;;;4820234;29;20121;-81
2023/03/18 07:53:46;;;;;;;;;;;;;;;;;;;;;
2023/03/18 07:56:30;;;;;;;40.50;18.00;;;15.40;70.40;;;;;;4828165;29;20054;-80
2023/03/18 07:58:56;;;;;;;24.75;16.52;;;15.50;70.20;;;;;;4826203;29;20042;-81
2023/03/18 08:01:22;;;;;;;19.50;15.75;;;15.50;69.80;;;;;;4812178;29;20377;-77
2023/03/18 08:03:48;;;;;;;27.00;18.58;;;15.40;68.60;;;;;;4827311;29;20051;-81
2023/03/18 08:06:14;;;;;;;27.70;20.50;;;15.40;68.60;;;;;;4823332;29;20046;-75
2023/03/18 08:08:41;;;;;;;28.13;19.45;;;15.40;68.40;;;;;;4844863;29;20078;-81
2023/03/18 08:11:08;;;;;;;25.00;18.13;;;15.40;68.30;;;;;;4815046;29;20114;-80
2023/03/18 08:13:35;;;;;;;21.90;18.33;;;15.40;68.30;;;;;;4829879;29;20111;-82
2023/03/18 08:16:00;;;;;;;21.35;17.70;;;15.40;68.20;;;;;;4815220;29;20045;-80
2023/03/18 08:18:26;;;;;;;22.35;18.02;;;15.40;68.30;;;;;;4817932;29;20462;-81
2023/03/18 08:20:52;;;;;;;21.13;18.23;;;15.40;68.30;;;;;;4796502;29;20046;-82
2023/03/18 08:23:18;;;;;;;21.75;17.63;;;15.40;68.20;;;;;;4811417;29;20245;-81
2023/03/18 08:25:48;;;;;;;22.00;17.98;;;15.40;68.20;;;;;;4811831;29;20046;-80
2023/03/18 08:28:14;;;;;;;21.92;17.27;;;15.40;68.10;;;;;;4802046;29;20051;-82
2023/03/18 08:30:40;;;;;;;20.25;16.60;;;15.40;68.10;;;;;;4794133;29;20061;-82
2023/03/18 08:33:06;;;;;;;18.02;16.13;;;15.40;68.10;;;;;;4792857;29;20530;-82
2023/03/18 08:35:33;;;;;;;21.48;16.42;;;15.30;68.00;;;;;;4809241;29;20055;-85
2023/03/18 08:37:59;;;;;;;18.50;15.82;;;15.30;68.00;;;;;;4783182;29;20058;-80
2023/03/18 08:40:25;;;;;;;18.23;15.27;;;15.30;68.00;;;;;;4811324;29;20061;-81
2023/03/18 08:42:52;;;;;;;17.50;15.60;;;15.30;68.00;;;;;;4811661;29;20061;-79
2023/03/18 08:45:18;;;;;;;19.05;15.20;;;15.30;67.90;;;;;;4810890;29;20046;-80
2023/03/18 08:47:44;;;;;;;19.20;15.32;;;15.30;67.90;;;;;;4791005;29;20046;-80
2023/03/18 08:50:12;;;;;;;21.17;16.30;;;15.30;68.40;;;;;;4809062;29;20381;-80
2023/03/18 08:52:38;;;;;;;19.27;14.70;;;15.30;67.80;;;;;;4792982;29;20100;-80
2023/03/18 08:55:06;;;;;;;17.88;15.48;;;15.30;67.80;;;;;;4793770;29;20115;-81
2023/03/18 08:57:32;;;;;;;17.77;13.95;;;15.30;67.80;;;;;;4780055;29;20054;-84
2023/03/18 08:59:57;;;;;;;16.85;14.10;;;15.30;67.80;;;;;;4827496;29;20050;-82
2023/03/18 09:02:23;;;;;;;16.23;13.95;;;15.20;67.70;;;;;;4810684;29;20118;-80
2023/03/18 09:04:50;;;;;;;17.15;14.48;;;15.30;67.80;;;;;;4810677;29;20046;-82
2023/03/18 09:07:15;;;;;;;16.35;13.63;;;15.30;67.80;;;;;;4810313;29;20062;-78
2023/03/18 09:09:42;;;;;;;16.20;12.57;;;15.30;68.00;;;;;;4808821;29;20066;-81
2023/03/18 09:12:08;;;;;;;16.60;13.73;;;15.30;68.00;;;;;;4792123;29;20087;-80
2023/03/18 09:14:34;;;;;;;18.17;13.52;;;15.30;68.00;;;;;;4792631;29;20542;-81
2023/03/18 09:17:00;;;;;;;18.13;12.77;;;15.20;68.00;;;;;;4792673;29;20042;-81
2023/03/18 09:19:26;;;;;;;16.80;13.00;;;15.30;68.20;;;;;;4824822;29;20046;-80
2023/03/18 09:21:52;;;;;;;16.00;12.00;;;15.20;68.30;;;;;;4810274;29;20115;-80
2023/03/18 09:24:21;;;;;;;16.73;12.90;;;15.20;68.30;;;;;;4810568;29;20077;-77
2023/03/18 09:26:47;;;;;;;17.30;13.20;;;15.20;68.50;;;;;;4826739;29;20077;-82
2023/03/18 09:29:13;;;;;;;17.65;12.55;;;15.20;68.60;;;;;;4820268;29;20486;-79
2023/03/18 09:31:39;;;;;;;15.55;12.43;;;15.20;68.60;;;;;;4809662;29;20053;-79
2023/03/18 09:34:04;;;;;;;14.02;11.38;;;15.20;68.60;;;;;;4825562;29;20085;-80
2023/03/18 09:36:30;;;;;;;14.73;12.10;;;15.20;68.70;;;;;;4824902;29;20090;-75
2023/03/18 09:38:59;;;;;;;14.57;10.95;;;15.20;69.80;;;;;;4822253;29;20382;-81
2023/03/18 09:41:51;;;;;;;16.33;11.50;;;15.30;69.80;;;;;;4809634;29;20050;-82
2023/03/18 09:44:28;;;;;;;13.80;10.80;;;15.30;69.20;;;;;;4809516;29;20070;-78
2023/03/18 09:47:06;;;;;;;14.10;10.20;;;15.20;69.00;;;;;;4825989;29;20065;-81
2023/03/18 09:49:38;;;;;;;17.42;11.80;;;15.20;69.00;;;;;;4824012;29;20106;-84
2023/03/18 09:52:28;;;;;;;14.35;10.68;;;15.20;69.00;;;;;;4807636;29;20414;-84
2023/03/18 09:55:19;;;;;;;11.57;9.48;;;15.20;69.00;;;;;;4807158;29;20054;-81
2023/03/18 09:57:48;;;;;;;12.93;9.80;;;15.20;69.10;;;;;;4825035;29;20061;-81
2023/03/18 10:00:26;;;;;;;14.27;10.40;;;15.20;69.20;;;;;;4824683;29;20050;-80
2023/03/18 10:03:07;;;;;;;12.48;9.73;;;15.20;69.30;;;;;;4826733;29;20057;-86
2023/03/18 10:05:42;;;;;;;12.82;8.93;;;15.20;69.40;;;;;;4810445;29;20100;-86
2023/03/18 10:08:31;;;;;;;13.93;9.27;;;15.20;69.40;;;;;;4825658;29;20059;-80
2023/03/18 10:11:03;;;;;;;13.45;9.80;;;15.20;69.40;;;;;;4810450;29;20137;-80
2023/03/18 10:13:37;;;;;;;10.68;8.57;;;15.20;69.40;;;;;;4826315;29;20455;-81
2023/03/18 10:16:06;;;;;;;14.25;9.05;;;15.20;69.40;;;;;;4826020;29;20046;-76
2023/03/18 10:18:34;;;;;;;12.15;8.70;;;15.20;69.50;;;;;;4815071;29;20050;-79
2023/03/18 10:21:36;;;;;;;10.32;8.10;;;15.20;69.30;;;;;;4792066;29;20047;-81
2023/03/18 10:27:32;;;;;;;17.88;9.40;;;15.20;69.70;;;;;;4808038;29;20055;-81
2023/03/18 10:30:21;;;;;;;14.73;8.63;;;15.20;70.30;;;;;;4809475;29;20398;-78
2023/03/18 10:33:16;;;;;;;15.70;8.52;;;15.30;70.50;;;;;;4825691;29;20066;-77
2023/03/18 10:35:53;;;;;;;16.52;9.45;;;15.30;70.80;;;;;;4825929;29;20366;-78
2023/03/18 10:38:25;;;;;;;26.23;9.57;;;15.30;70.50;;;;;;4800568;29;20055;-80
2023/03/18 10:40:52;;;;;;;26.45;8.85;;;15.30;70.40;;;;;;4791300;29;20147;-76
2023/03/18 10:43:30;;;;;;;18.10;8.90;;;15.30;71.00;;;;;;4806670;29;20055;-80
2023/03/18 10:46:17;;;;;;;19.20;8.43;;;15.30;71.40;;;;;;4807701;29;20125;-80
2023/03/18 10:48:53;;;;;;;16.42;7.05;;;15.30;71.70;;;;;;4818755;29;20054;-75
2023/03/18 10:51:46;;;;;;;20.90;7.82;;;15.40;71.80;;;;;;4825090;29;20069;-78
2023/03/18 10:54:27;;;;;;;22.27;7.75;;;15.40;72.50;;;;;;4825943;29;20045;-81
2023/03/18 10:56:53;;;;;;;26.98;7.82;;;15.40;71.30;;;;;;4791576;29;20125;-78
2023/03/18 10:59:25;;;;;;;17.58;6.82;;;15.50;71.50;;;;;;4808557;29;20053;-81
2023/03/18 11:02:00;;;;;;;17.88;5.90;;;15.70;71.00;;;;;;4826146;29;20060;-77
2023/03/18 11:04:27;;;;;;;25.27;6.57;;;15.80;71.60;;;;;;4791204;29;20117;-81
2023/03/18 11:07:04;;;;;;;18.90;6.28;;;16.00;71.80;;;;;;4809400;29;20161;-83
2023/03/18 11:09:41;;;;;;;17.52;6.80;;;16.10;73.00;;;;;;4793032;29;20054;-76
2023/03/18 11:12:17;;;;;;;17.75;5.38;;;16.20;75.70;;;;;;4847416;29;20069;-77
2023/03/18 11:14:47;;;;;;;14.55;4.95;;;16.20;74.90;;;;;;4831252;29;20366;-79
2023/03/18 11:17:26;;;;;;;12.50;4.53;;;16.20;76.40;;;;;;4846816;29;20159;-77
2023/03/18 11:20:23;;;;;;;10.15;4.55;;;16.30;76.30;;;;;;4810972;29;20054;-77
2023/03/18 11:22:51;;;;;;;11.82;4.57;;;16.30;76.10;;;;;;4810600;29;20050;-76
2023/03/18 11:25:21;;;;;;;11.82;4.32;;;16.30;76.10;;;;;;4815663;29;20068;-76
2023/03/18 11:27:57;;;;;;;13.48;4.10;;;16.30;73.00;;;;;;4811735;29;20054;-74
2023/03/18 11:30:25;;;;;;;14.13;3.92;;;16.30;74.30;;;;;;4824004;29;20121;-74
2023/03/18 11:33:02;;;;;;;12.65;4.22;;;16.30;74.20;;;;;;4810522;29;20150;-75
2023/03/18 11:35:59;;;;;;;14.18;3.75;;;16.30;74.00;;;;;;4822612;29;20050;-74
2023/03/18 11:38:28;;;;;;;12.55;3.33;;;16.30;73.90;;;;;;4821418;29;20057;-75
2023/03/18 11:41:21;;;;;;;10.45;2.75;;;16.30;74.10;;;;;;4812230;29;20054;-73
2023/03/18 11:44:01;;;;;;;9.88;2.85;;;16.30;74.10;;;;;;4828359;29;20114;-74
2023/03/18 11:46:47;;;;;;;11.65;2.70;;;16.30;73.90;;;;;;4828458;29;20086;-75
2023/03/18 11:49:21;;;;;;;12.57;3.20;;;16.30;73.50;;;;;;4814050;29;20058;-75
2023/03/18 11:52:18;;;;;;;17.48;3.10;;;16.30;73.10;;;;;;4802810;29;20050;-74
2023/03/18 11:54:44;;;;;;;17.75;3.33;;;16.30;72.70;;;;;;4810092;29;20086;-74
2023/03/18 11:57:36;;;;;;;18.90;3.38;;;16.20;72.80;;;;;;4810257;29;20063;-74
2023/03/18 12:00:18;;;;;;;10.98;3.08;;;16.20;73.20;;;;;;4810689;29;20099;-74
2023/03/18 12:03:08;;;;;;;12.30;2.65;;;16.20;73.40;;;;;;4810247;29;20054;-74
2023/03/18 12:05:51;;;;;;;15.32;2.92;;;16.20;73.60;;;;;;4793833;29;20142;-74
2023/03/18 12:08:37;;;;;;;8.98;2.42;;;16.20;73.70;;;;;;4809982;29;20051;-74
2023/03/18 12:11:31;;;;;;;10.93;3.03;;;16.20;73.90;;;;;;4809838;29;20123;-74
2023/03/18 12:14:17;;;;;;;13.32;2.78;;;16.20;74.00;;;;;;4803930;29;20062;-74
2023/03/18 12:17:11;;;;;;;8.95;2.13;;;16.20;74.00;;;;;;4809419;29;20051;-74
2023/03/18 12:19:47;;;;;;;11.05;2.55;;;16.20;74.00;;;;;;4808752;29;20132;-74
2023/03/18 12:22:38;;;;;;;10.00;2.33;;;16.10;73.80;;;;;;4826804;29;20125;-74
2023/03/18 12:25:29;;;;;;;10.52;2.38;;;16.10;73.80;;;;;;4827338;29;20470;-74
2023/03/18 12:28:10;;;;;;;7.50;2.10;;;16.10;73.70;;;;;;4808341;29;20038;-74
2023/03/18 12:30:50;;;;;;;10.23;2.08;;;16.10;73.50;;;;;;4809497;29;20464;-74
2023/03/18 12:33:46;;;;;;;10.35;1.92;;;16.10;73.50;;;;;;4809344;29;20078;-74
2023/03/18 12:36:34;;;;;;;12.00;1.58;;;16.10;73.50;;;;;;4800895;29;20059;-74
2023/03/18 12:39:06;;;;;;;2.90;1.60;;;16.10;73.30;;;;;;4820087;29;20058;-74
2023/03/18 12:41:45;;;;;;;6.68;1.83;;;16.10;73.20;;;;;;4827380;29;20058;-74
2023/03/18 12:44:23;;;;;;;4.15;1.50;;;16.10;73.20;;;;;;4827551;29;20135;-73
2023/03/18 12:46:56;;;;;;;7.80;1.85;;;16.00;73.10;;;;;;4827372;29;20070;-73
2023/03/18 12:49:28;;;;;;;6.72;1.23;;;16.00;73.10;;;;;;4813631;29;20061;-74
2023/03/18 12:52:19;;;;;;;5.78;1.20;;;16.00;73.00;;;;;;4809852;29;20069;-74
2023/03/18 12:55:10;;;;;;;7.30;1.42;;;16.00;73.00;;;;;;4809680;29;20054;-74
2023/03/18 12:58:13;;;;;;;4.88;1.20;;;16.00;72.90;;;;;;4808692;29;20477;-75
2023/03/18 13:01:15;;;;;;;5.10;1.42;;;16.00;72.80;;;;;;4763906;29;20553;-73
2023/03/18 13:03:46;;;;;;;5.55;1.33;;;16.00;72.80;;;;;;4809086;29;20057;-74
2023/03/18 13:06:22;;;;;;;9.65;1.75;;;16.00;72.80;;;;;;4809172;29;20130;-73
2023/03/18 13:09:03;;;;;;;7.47;1.40;;;16.00;72.80;;;;;;4809766;29;20484;-76
2023/03/18 13:11:49;;;;;;;13.85;2.50;;;16.00;72.80;;;;;;4827346;29;20054;-76
2023/03/18 13:14:34;;;;;;;16.88;2.65;;;16.00;72.80;;;;;;4822807;29;20065;-74
2023/03/18 13:17:01;;;;;;;11.25;1.67;;;16.00;72.90;;;;;;4830749;29;20347;-77
2023/03/18 13:19:28;;;;;;;5.13;1.30;;;15.90;71.20;;;;;;4842454;29;20062;-74
2023/03/18 13:22:22;;;;;;;5.20;1.15;;;15.80;70.20;;;;;;4831500;29;20062;-77
2023/03/18 13:25:04;;;;;;;6.45;1.67;;;15.70;69.70;;;;;;4809888;29;20558;-79
2023/03/18 13:27:45;;;;;;;9.25;2.35;;;15.70;70.30;;;;;;4827623;29;20042;-75
2023/03/18 13:30:32;;;;;;;14.20;1.90;;;15.70;71.90;;;;;;4811838;29;20148;-74
2023/03/18 13:33:40;;;;;;;13.57;2.22;;;15.70;72.30;;;;;;4807797;29;20077;-74
2023/03/18 13:36:41;;;;;;;9.63;2.38;;;15.70;72.40;;;;;;4804268;29;20115;-75
2023/03/18 13:39:25;;;;;;;17.20;2.45;;;15.80;72.50;;;;;;4814164;29;20082;-76
2023/03/18 13:42:22;;;;;;;16.95;3.05;;;15.80;72.50;;;;;;4830046;29;20068;-75
2023/03/18 13:44:54;;;;;;;17.40;3.50;;;15.80;70.80;;;;;;4830565;29;20481;-75
2023/03/18 13:47:22;;;;;;;9.48;1.98;;;15.80;71.30;;;;;;4832042;29;20537;-76
2023/03/18 13:49:58;;;;;;;9.43;1.77;;;15.70;71.00;;;;;;4828316;29;20054;-77
2023/03/18 13:52:33;;;;;;;8.10;1.73;;;15.70;71.00;;;;;;4819005;29;20061;-75
2023/03/18 13:55:38;;;;;;;13.15;2.55;;;15.60;71.20;;;;;;4844834;29;20061;-76
2023/03/18 13:58:14;;;;;;;12.07;1.65;;;15.60;71.00;;;;;;4838614;29;20180;-75
2023/03/18 14:00:41;;;;;;;10.73;1.60;;;15.60;71.40;;;;;;4825980;29;20092;-74
2023/03/18 14:03:29;;;;;;;14.43;2.78;;;15.60;71.60;;;;;;4825926;29;20078;-75
2023/03/18 14:06:04;;;;;;;10.85;2.10;;;15.60;71.40;;;;;;4826103;29;20058;-75
2023/03/18 14:08:42;;;;;;;11.80;1.92;;;15.60;71.60;;;;;;4825255;29;20057;-75
2023/03/18 14:11:45;;;;;;;9.25;1.90;;;15.60;71.60;;;;;;4826854;29;20091;-74
2023/03/18 14:14:39;;;;;;;10.95;2.03;;;15.60;71.70;;;;;;4826177;29;20090;-75
2023/03/18 14:17:12;;;;;;;21.13;3.03;;;15.60;71.70;;;;;;4826007;29;20054;-73
2023/03/18 14:19:38;;;;;;;25.27;4.30;;;15.60;71.90;;;;;;4796386;29;20073;-74
2023/03/18 14:22:13;;;;;;;14.05;3.63;;;15.70;71.80;;;;;;4792331;29;20047;-74
2023/03/18 14:24:39;;;;;;;20.88;4.07;;;15.70;70.70;;;;;;4807888;29;20059;-73
2023/03/18 14:27:05;;;;;;;14.55;3.55;;;15.70;70.40;;;;;;4807915;29;20054;-74
2023/03/18 14:29:41;;;;;;;15.65;3.95;;;15.80;70.40;;;;;;4819102;29;20134;-73
2023/03/18 14:32:34;;;;;;;15.73;4.78;;;15.80;70.50;;;;;;4826363;29;20074;-74
2023/03/18 14:35:26;;;;;;;14.38;3.75;;;15.80;70.80;;;;;;4826229;29;20050;-75
2023/03/18 14:37:59;;;;;;;11.23;3.53;;;15.80;70.40;;;;;;4826351;29;20043;-79
2023/03/18 14:40:25;;;;;;;17.47;3.73;;;15.90;70.30;;;;;;4791854;29;20058;-75
2023/03/18 14:43:00;;;;;;;19.58;4.00;;;15.90;70.20;;;;;;4819568;29;20065;-77
2023/03/18 14:45:36;;;;;;;24.27;4.72;;;16.00;70.10;;;;;;4829053;29;20097;-77
2023/03/18 14:48:10;;;;;;;19.65;3.70;;;16.10;70.10;;;;;;4828251;29;20050;-74
2023/03/18 14:50:39;;;;;;;19.67;4.35;;;16.20;70.00;;;;;;4835645;29;20362;-74
2023/03/18 14:53:23;;;;;;;27.27;5.13;;;16.20;70.20;;;;;;4827154;29;20529;-75
2023/03/18 14:55:53;;;;;;;29.60;4.65;;;16.30;70.30;;;;;;4827630;29;20058;-74
2023/03/18 14:58:20;;;;;;;30.30;4.53;;;16.30;70.10;;;;;;4820265;29;20062;-73
2023/03/18 15:00:50;;;;;;;27.35;4.15;;;16.40;70.30;;;;;;4829460;29;20083;-73
2023/03/18 15:03:27;;;;;;;25.45;4.38;;;16.40;70.40;;;;;;4829210;29;20431;-75
2023/03/18 15:05:59;;;;;;;29.23;4.60;;;16.50;70.30;;;;;;4825115;29;20061;-74
2023/03/18 15:08:28;;;;;;;22.73;4.15;;;16.50;70.20;;;;;;4829215;29;20369;-74
2023/03/18 15:10:55;;;;;;;34.92;5.28;;;16.50;70.20;;;;;;4829040;29;20065;-74
2023/03/18 15:13:24;;;;;;;28.17;4.50;;;16.50;70.40;;;;;;4828802;29;20052;-74
2023/03/18 15:15:55;;;;;;;29.33;5.45;;;16.50;70.40;;;;;;4827286;29;20455;-75
2023/03/18 15:18:27;;;;;;;30.23;5.25;;;16.50;70.50;;;;;;4812384;29;20050;-77
2023/03/18 15:21:18;;;;;;;33.95;4.65;;;16.50;70.50;;;;;;4829105;29;20042;-73
2023/03/18 15:23:50;;;;;;;31.33;5.47;;;16.50;70.60;;;;;;4822128;29;20046;-75
2023/03/18 15:26:27;;;;;;;28.45;4.50;;;16.50;70.80;;;;;;4818761;29;20053;-74
2023/03/18 15:28:59;;;;;;;33.10;5.25;;;16.50;70.70;;;;;;4810619;29;20057;-73
2023/03/18 15:31:47;;;;;;;29.38;5.03;;;16.50;70.80;;;;;;4810386;29;20047;-72
2023/03/18 15:34:28;;;;;;;31.35;4.65;;;16.50;70.80;;;;;;4810701;29;20065;-74
2023/03/18 15:37:00;;;;;;;41.85;5.10;;;16.50;70.80;;;;;;4796467;29;20063;-74
2023/03/18 15:39:36;;;;;;;31.02;4.55;;;16.50;70.90;;;;;;4792365;30;20417;-75
2023/03/18 15:42:14;;;;;;;34.10;5.25;;;16.40;70.90;;;;;;4792581;30;20062;-74
2023/03/18 15:44:41;;;;;;;36.20;4.97;;;16.40;71.10;;;;;;4792413;30;20447;-73
2023/03/18 15:47:16;;;;;;;29.52;6.25;;;16.40;71.20;;;;;;4806411;29;20054;-72
2023/03/18 15:49:51;;;;;;;27.50;6.22;;;16.40;71.20;;;;;;4809905;29;20093;-73
2023/03/18 15:52:25;;;;;;;24.70;5.80;;;16.40;71.30;;;;;;4794718;29;20090;-75
2023/03/18 15:54:51;;;;;;;;;;;16.40;71.40;;;;;;4810658;29;20059;-74
2023/03/18 15:57:31;;;;;;;26.92;5.50;;;16.30;71.80;;;;;;4795088;29;19925;-74
2023/03/18 15:59:57;;;;;;;29.55;7.15;;;16.30;72.10;;;;;;4792156;30;20048;-74
2023/03/18 16:02:24;;;;;;;28.90;6.30;;;16.30;72.20;;;;;;4792186;30;20051;-74
2023/03/18 16:04:50;;;;;;;27.77;5.57;;;16.30;72.70;;;;;;4792249;30;20372;-74
2023/03/18 16:07:20;;;;;;;23.38;5.32;;;16.30;73.10;;;;;;4792347;29;20083;-75
2023/03/18 16:09:47;;;;;;;31.70;5.88;;;16.30;73.30;;;;;;4784891;30;20054;-76
2023/03/18 16:12:19;;;;;;;29.48;6.13;;;16.30;73.40;;;;;;4792040;30;20051;-73
2023/03/18 16:14:46;;;;;;;23.50;5.78;;;16.30;73.70;;;;;;4784036;30;20051;-73
2023/03/18 16:17:14;;;;;;;24.42;5.53;;;16.30;74.00;;;;;;4805411;29;20055;-73
2023/03/18 16:19:40;;;;;;;24.10;4.65;;;16.30;74.10;;;;;;4809820;29;20113;-73
2023/03/18 16:22:07;;;;;;;24.60;5.35;;;16.30;74.40;;;;;;4810147;29;20059;-73
2023/03/18 16:24:33;;;;;;;24.85;5.05;;;16.30;74.80;;;;;;4810430;29;20098;-73
2023/03/18 16:26:58;;;;;;;24.98;6.28;;;16.30;75.00;;;;;;4797915;29;20067;-73
2023/03/18 16:29:31;;;;;;;24.60;5.15;;;16.30;75.20;;;;;;4791991;30;20191;-73
2023/03/18 16:31:57;;;;;;;19.13;4.55;;;16.30;75.50;;;;;;4791475;29;20340;-72
2023/03/18 16:34:23;;;;;;;19.48;5.25;;;16.40;75.10;;;;;;4776300;30;20463;-72
2023/03/18 16:36:52;;;;;;;17.00;4.47;;;16.40;74.70;;;;;;4785317;29;20061;-72
2023/03/18 16:39:27;;;;;;;20.05;4.97;;;16.40;74.50;;;;;;4809613;29;20066;-72
2023/03/18 16:41:53;;;;;;;15.77;4.68;;;16.40;74.00;;;;;;4809499;29;20173;-73
2023/03/18 16:44:22;;;;;;;18.15;5.47;;;16.40;73.60;;;;;;4809420;29;20094;-74
2023/03/18 16:46:54;;;;;;;17.27;5.63;;;16.40;73.20;;;;;;4783852;29;20059;-73
2023/03/18 16:49:24;;;;;;;17.80;5.15;;;16.40;72.90;;;;;;4791350;30;20429;-74
2023/03/18 16:51:50;;;;;;;14.93;5.57;;;16.40;72.70;;;;;;4791323;30;20124;-73
2023/03/18 16:54:28;;;;;;;14.00;5.60;;;16.40;72.70;;;;;;4791801;30;20128;-74
2023/03/18 16:56:56;;;;;;;19.95;5.10;;;16.40;72.40;;;;;;4800572;29;20051;-73
2023/03/18 16:59:23;;;;;;;20.23;5.50;;;16.40;72.30;;;;;;4793810;29;20065;-73
2023/03/18 17:01:50;;;;;;;18.48;6.40;;;16.40;72.30;;;;;;4809214;29;20084;-73
2023/03/18 17:04:19;;;;;;;19.83;6.15;;;16.40;72.20;;;;;;4808989;29;20142;-74
2023/03/18 17:06:45;;;;;;;19.30;6.38;;;16.40;72.00;;;;;;4799645;29;20059;-74
2023/03/18 17:09:11;;;;;;;27.65;6.40;;;16.40;72.10;;;;;;4802626;29;20112;-73
2023/03/18 17:11:36;;;;;;;24.33;6.30;;;16.40;72.20;;;;;;4793018;29;20486;-71
2023/03/18 17:14:02;;;;;;;26.98;6.53;;;16.40;72.30;;;;;;4807846;29;20417;-72
2023/03/18 17:16:30;;;;;;;32.65;6.20;;;16.30;72.40;;;;;;4807521;29;20055;-72
2023/03/18 17:18:57;;;;;;;29.17;6.45;;;16.40;72.60;;;;;;4808757;29;20063;-73
2023/03/18 17:21:27;;;;;;;31.20;6.00;;;16.40;72.60;;;;;;4807801;29;20165;-72
2023/03/18 17:23:54;;;;;;;52.13;8.48;;;16.30;72.70;;;;;;4808612;29;20055;-71
2023/03/18 17:26:23;;;;;;;19.63;3.92;;;16.40;73.20;;;;;;4807762;29;20398;-72
2023/03/18 17:28:49;;;;;;;17.52;4.55;;;16.30;70.80;;;;;;4808539;29;20099;-71
2023/03/18 17:31:15;;;;;;;17.58;3.88;;;16.30;70.70;;;;;;4808082;29;20043;-71
2023/03/18 17:33:41;;;;;;;23.52;4.47;;;16.30;70.90;;;;;;4806685;29;20054;-71
2023/03/18 17:36:07;;;;;;;22.95;4.90;;;16.20;71.00;;;;;;4823618;29;20443;-73
2023/03/18 17:38:34;;;;;;;21.58;4.75;;;16.20;71.20;;;;;;4808683;29;20129;-71
2023/03/18 17:41:04;;;;;;;19.60;5.25;;;16.20;71.30;;;;;;4808205;29;20125;-72
2023/03/18 17:43:33;;;;;;;17.02;4.28;;;16.20;71.40;;;;;;4807612;29;20116;-72
2023/03/18 17:46:00;;;;;;;25.27;4.90;;;16.20;71.50;;;;;;4809332;29;20054;-72
2023/03/18 17:48:33;;;;;;;21.83;4.47;;;16.20;71.50;;;;;;4826037;29;20084;-71
2023/03/18 17:51:03;;;;;;;25.48;4.65;;;16.20;71.50;;;;;;4826482;29;20047;-72
2023/03/18 17:53:58;;;;;;;18.15;4.93;;;16.20;71.50;;;;;;4826580;29;20137;-72
2023/03/18 17:56:26;;;;;;;11.93;3.63;;;16.20;71.30;;;;;;4806765;29;20069;-73
2023/03/18 17:58:52;;;;;;;17.20;3.63;;;16.20;71.50;;;;;;4792594;29;20133;-72
2023/03/18 18:01:25;;;;;;;17.80;4.15;;;16.20;71.40;;;;;;4808067;29;20464;-72
2023/03/18 18:03:54;;;;;;;21.77;4.07;;;16.20;71.40;;;;;;4807898;29;20055;-72
2023/03/18 18:06:22;;;;;;;13.77;3.53;;;16.20;71.30;;;;;;4810576;29;20096;-72
2023/03/18 18:08:48;;;;;;;13.38;3.95;;;16.10;71.20;;;;;;4827002;29;20050;-72
2023/03/18 18:11:23;;;;;;;22.35;4.75;;;16.20;71.30;;;;;;4826295;29;20043;-73
2023/03/18 18:13:50;;;;;;;18.15;4.05;;;16.20;71.20;;;;;;4826395;29;20062;-72
2023/03/18 18:16:18;;;;;;;15.95;4.45;;;16.20;71.20;;;;;;4823840;29;20090;-72
2023/03/18 18:18:44;;;;;;;10.73;3.55;;;16.20;71.20;;;;;;4815501;29;20065;-72
2023/03/18 18:21:23;;;;;;;10.63;3.10;;;16.20;71.10;;;;;;4810035;29;20085;-71
2023/03/18 18:23:49;;;;;;;14.38;2.90;;;16.20;71.10;;;;;;4826655;29;20062;-72
2023/03/18 18:26:17;;;;;;;13.05;6.72;;;16.20;70.80;;;;;;4824101;29;20046;-72
2023/03/18 18:28:46;;;;;;;11.52;6.95;;;16.20;69.60;;;;;;4809686;29;20070;-72
2023/03/18 18:31:13;;;;;;;9.70;6.82;;;16.20;68.70;;;;;;4826805;29;20338;-72
2023/03/18 18:33:44;;;;;;;8.88;6.43;;;16.10;68.40;;;;;;4825703;29;20070;-72
2023/03/18 18:36:11;;;;;;;10.82;6.93;;;15.90;68.20;;;;;;4824725;29;20054;-72
2023/03/18 18:38:37;;;;;;;8.02;6.60;;;15.80;68.20;;;;;;4807536;29;20054;-72